createdAt,value
2022-10-20T00:01:14.605Z,80.71
2022-10-20T00:03:43.278Z,80.95
2022-10-20T00:06:13.128Z,80.88
2022-10-20T00:08:42.683Z,81.00
2022-10-20T00:11:12.712Z,81.10
2022-10-20T00:13:42.231Z,81.17
2022-10-20T00:16:12.158Z,81.10
2022-10-20T00:18:40.933Z,81.13
2022-10-20T00:21:11.333Z,81.09
2022-10-20T00:23:39.468Z,81.07
2022-10-20T00:26:09.652Z,81.16
2022-10-20T00:28:38.305Z,81.15
2022-10-20T00:31:07.230Z,81.19
2022-10-20T00:33:37.240Z,81.30
2022-10-20T00:36:07.881Z,81.32
2022-10-20T00:38:36.324Z,81.33
2022-10-20T00:41:05.303Z,81.42
2022-10-20T00:43:44.991Z,81.18
2022-10-20T00:46:16.250Z,81.28
2022-10-20T00:48:48.903Z,81.12
2022-10-20T00:51:20.781Z,81.19
2022-10-20T00:53:53.188Z,81.46
2022-10-20T00:56:22.012Z,81.53
2022-10-20T00:58:50.852Z,81.41
2022-10-20T01:01:20.157Z,81.37
2022-10-20T01:03:53.972Z,81.45
2022-10-20T01:06:23.764Z,81.53
2022-10-20T01:08:54.116Z,81.49
2022-10-20T01:11:33.069Z,81.49
2022-10-20T01:14:15.451Z,81.25
2022-10-20T01:16:52.993Z,81.29
2022-10-20T01:19:47.930Z,81.22
2022-10-20T01:22:37.509Z,81.20
2022-10-20T01:25:19.108Z,81.13
2022-10-20T01:27:51.844Z,81.13
2022-10-20T01:30:23.129Z,81.12
2022-10-20T01:32:57.353Z,81.23
2022-10-20T01:35:35.842Z,81.16
2022-10-20T01:38:10.370Z,80.97
2022-10-20T01:40:44.761Z,80.81
2022-10-20T01:43:18.093Z,80.77
2022-10-20T01:45:48.431Z,80.91
2022-10-20T01:48:20.981Z,80.74
2022-10-20T01:50:50.709Z,80.76
2022-10-20T01:53:18.962Z,80.58
2022-10-20T01:55:47.093Z,80.51
2022-10-20T01:58:46.345Z,80.60
2022-10-20T02:01:22.106Z,80.64
2022-10-20T02:03:55.081Z,80.64
2022-10-20T02:06:35.511Z,80.57
2022-10-20T02:09:07.315Z,80.61
2022-10-20T02:11:42.751Z,80.72
2022-10-20T02:14:15.565Z,80.50
2022-10-20T02:16:48.461Z,80.53
2022-10-20T02:19:21.107Z,80.44
2022-10-20T02:21:50.893Z,80.45
2022-10-20T02:24:21.081Z,80.52
2022-10-20T02:26:49.686Z,80.52
2022-10-20T02:29:22.965Z,80.41
2022-10-20T02:31:51.261Z,80.34
2022-10-20T02:34:19.679Z,80.36
2022-10-20T02:36:47.921Z,80.39
2022-10-20T02:39:16.263Z,80.36
2022-10-20T02:41:44.505Z,80.28
2022-10-20T02:44:12.674Z,80.28
2022-10-20T02:46:42.182Z,80.36
2022-10-20T02:49:10.449Z,80.36
2022-10-20T02:51:38.539Z,80.30
2022-10-20T02:54:06.667Z,80.20
2022-10-20T02:56:34.955Z,80.25
2022-10-20T02:59:03.101Z,80.11
2022-10-20T03:01:31.497Z,80.18
2022-10-20T03:04:01.071Z,80.33
2022-10-20T03:06:29.669Z,80.18
2022-10-20T03:08:57.897Z,80.11
2022-10-20T03:11:26.100Z,80.07
2022-10-20T03:13:54.256Z,79.95
2022-10-20T03:16:22.533Z,79.96
2022-10-20T03:18:50.729Z,80.25
2022-10-20T03:21:20.377Z,80.18
2022-10-20T03:23:49.111Z,80.30
2022-10-20T03:26:17.262Z,80.46
2022-10-20T03:28:45.563Z,80.49
2022-10-20T03:31:13.745Z,80.46
2022-10-20T03:33:41.878Z,80.55
2022-10-20T03:36:11.387Z,80.56
2022-10-20T03:38:42.109Z,80.62
2022-10-20T03:41:10.389Z,80.44
2022-10-20T03:43:39.768Z,80.36
2022-10-20T03:46:09.697Z,80.39
2022-10-20T03:48:39.129Z,80.46
2022-10-20T03:51:09.130Z,80.59
2022-10-20T03:53:37.290Z,80.65
2022-10-20T03:56:11.095Z,80.72
2022-10-20T03:58:41.943Z,80.70
2022-10-20T04:01:15.297Z,80.72
2022-10-20T04:03:44.791Z,80.78
2022-10-20T04:06:13.811Z,80.88
2022-10-20T04:08:42.185Z,81.01
2022-10-20T04:11:11.816Z,81.10
2022-10-20T04:13:40.183Z,81.04
2022-10-20T04:16:09.185Z,81.14
2022-10-20T04:18:37.362Z,81.20
2022-10-20T04:21:05.948Z,81.48
2022-10-20T04:23:34.139Z,81.54
2022-10-20T04:26:08.596Z,81.60
2022-10-20T04:28:38.334Z,81.59
2022-10-20T04:31:07.143Z,81.67
2022-10-20T04:33:35.355Z,81.77
2022-10-20T04:36:06.378Z,81.91
2022-10-20T04:38:35.451Z,81.96
2022-10-20T04:41:05.685Z,82.15
2022-10-20T04:43:34.499Z,82.01
2022-10-20T04:46:07.971Z,82.05
2022-10-20T04:48:37.224Z,82.13
2022-10-20T04:51:07.196Z,82.33
2022-10-20T04:53:35.745Z,82.33
2022-10-20T04:56:05.306Z,82.42
2022-10-20T04:58:34.213Z,82.38
2022-10-20T05:01:05.716Z,82.29
2022-10-20T05:03:34.285Z,82.31
2022-10-20T05:06:12.721Z,82.26
2022-10-20T05:08:42.070Z,82.08
2022-10-20T05:11:11.484Z,82.19
2022-10-20T05:13:40.069Z,82.16
2022-10-20T05:16:10.716Z,82.17
2022-10-20T05:18:39.344Z,82.23
2022-10-20T05:21:09.758Z,82.19
2022-10-20T05:23:39.242Z,82.14
2022-10-20T05:26:09.630Z,82.09
2022-10-20T05:28:38.099Z,82.07
2022-10-20T05:31:08.253Z,81.95
2022-10-20T05:33:39.411Z,82.02
2022-10-20T05:36:11.957Z,81.94
2022-10-20T05:38:40.859Z,81.86
2022-10-20T05:41:10.725Z,81.99
2022-10-20T05:43:39.001Z,82.04
2022-10-20T05:46:07.881Z,82.10
2022-10-20T05:48:42.794Z,81.97
2022-10-20T05:51:14.943Z,81.90
2022-10-20T05:53:43.751Z,81.91
2022-10-20T05:56:14.307Z,81.81
2022-10-20T05:58:43.233Z,81.64
2022-10-20T06:01:17.090Z,81.57
2022-10-20T06:03:50.004Z,81.47
2022-10-20T06:06:18.548Z,81.52
2022-10-20T06:08:46.909Z,81.46
2022-10-20T06:11:16.509Z,81.59
2022-10-20T06:13:47.060Z,81.62
2022-10-20T06:16:22.290Z,81.65
2022-10-20T06:18:52.645Z,81.66
2022-10-20T06:21:24.572Z,81.65
2022-10-20T06:23:58.036Z,81.51
2022-10-20T06:26:29.520Z,81.42
2022-10-20T06:29:04.588Z,81.26
2022-10-20T06:31:49.148Z,81.20
2022-10-20T06:34:20.871Z,81.11
2022-10-20T06:37:03.956Z,80.95
2022-10-20T06:39:32.668Z,80.80
2022-10-20T06:42:05.899Z,80.72
2022-10-20T06:44:38.175Z,80.75
2022-10-20T06:47:10.498Z,80.88
2022-10-20T06:49:40.628Z,80.72
2022-10-20T06:52:18.926Z,80.67
2022-10-20T06:54:47.074Z,80.79
2022-10-20T06:57:17.899Z,80.71
2022-10-20T06:59:51.674Z,80.80
2022-10-20T07:02:21.879Z,80.63
2022-10-20T07:04:52.290Z,80.44
2022-10-20T07:07:22.388Z,80.39
2022-10-20T07:09:53.295Z,80.43
2022-10-20T07:12:21.533Z,80.47
2022-10-20T07:14:49.721Z,80.36
2022-10-20T07:17:17.818Z,80.20
2022-10-20T07:19:45.915Z,80.23
2022-10-20T07:22:15.365Z,80.09
2022-10-20T07:24:43.718Z,80.05
2022-10-20T07:27:12.080Z,79.99
2022-10-20T07:29:40.419Z,79.94
2022-10-20T07:32:08.524Z,80.01
2022-10-20T07:34:36.653Z,79.96
2022-10-20T07:37:04.781Z,79.75
2022-10-20T07:39:34.334Z,79.68
2022-10-20T07:42:02.596Z,79.62
2022-10-20T07:44:31.169Z,79.38
2022-10-20T07:46:59.332Z,79.29
2022-10-20T07:49:44.450Z,79.23
2022-10-20T07:52:13.277Z,79.34
2022-10-20T07:54:43.051Z,79.53
2022-10-20T07:57:11.604Z,79.49
2022-10-20T07:59:39.783Z,79.48
2022-10-20T08:02:08.499Z,79.43
2022-10-20T08:04:36.686Z,79.36
2022-10-20T08:07:04.819Z,79.27
2022-10-20T08:09:33.791Z,79.40
2022-10-20T08:12:04.104Z,79.64
2022-10-20T08:14:33.814Z,79.78
2022-10-20T08:17:02.416Z,79.57
2022-10-20T08:20:02.682Z,79.51
2022-10-20T08:22:30.823Z,79.49
2022-10-20T08:24:59.337Z,79.53
2022-10-20T08:27:28.838Z,79.61
2022-10-20T08:30:06.228Z,79.75
2022-10-20T08:32:45.559Z,79.82
2022-10-20T08:35:13.710Z,80.17
2022-10-20T08:37:41.906Z,80.20
2022-10-20T08:40:17.336Z,80.29
2022-10-20T08:42:47.832Z,80.27
2022-10-20T08:45:17.638Z,80.34
2022-10-20T08:47:47.981Z,80.46
2022-10-20T08:50:18.404Z,80.85
2022-10-20T08:52:48.252Z,81.40
2022-10-20T08:55:27.457Z,82.07
2022-10-20T08:58:01.576Z,82.33
2022-10-20T09:00:31.178Z,82.23
2022-10-20T09:03:04.195Z,82.45
2022-10-20T09:05:35.486Z,82.94
2022-10-20T09:08:03.887Z,83.19
2022-10-20T09:10:36.405Z,83.44
2022-10-20T09:13:13.051Z,84.03
2022-10-20T09:15:41.590Z,83.96
2022-10-20T09:18:15.205Z,84.24
2022-10-20T09:20:48.660Z,84.80
2022-10-20T09:23:40.126Z,84.77
2022-10-20T09:26:24.841Z,84.66
2022-10-20T09:29:13.447Z,84.89
2022-10-20T09:31:44.511Z,85.00
2022-10-20T09:34:24.026Z,84.52
2022-10-20T09:36:56.501Z,84.54
2022-10-20T09:39:28.823Z,84.68
2022-10-20T09:42:04.066Z,84.72
2022-10-20T09:44:36.263Z,84.49
2022-10-20T09:47:05.098Z,84.10
2022-10-20T09:49:36.392Z,83.68
2022-10-20T09:52:16.704Z,83.45
2022-10-20T09:54:48.701Z,82.52
2022-10-20T09:57:19.890Z,82.70
2022-10-20T09:59:52.210Z,82.98
2022-10-20T10:02:32.810Z,83.11
2022-10-20T10:05:19.024Z,82.36
2022-10-20T10:07:59.015Z,82.27
2022-10-20T10:10:30.728Z,81.96
2022-10-20T10:13:01.846Z,81.04
2022-10-20T10:15:33.249Z,81.01
2022-10-20T10:18:12.631Z,80.96
2022-10-20T10:20:41.275Z,81.21
2022-10-20T10:23:22.501Z,81.38
2022-10-20T10:25:52.628Z,82.11
2022-10-20T10:28:36.502Z,81.48
2022-10-20T10:31:24.223Z,81.24
2022-10-20T10:33:56.884Z,81.19
2022-10-20T10:36:32.672Z,81.38
2022-10-20T10:39:01.687Z,82.33
2022-10-20T10:41:52.477Z,82.68
2022-10-20T10:44:34.875Z,83.21
2022-10-20T10:47:20.228Z,83.42
2022-10-20T10:49:59.011Z,83.03
2022-10-20T10:52:42.981Z,82.84
2022-10-20T10:55:37.184Z,82.47
2022-10-20T11:00:53.882Z,81.11
2022-10-20T11:03:42.561Z,80.40
2022-10-20T11:06:19.857Z,79.37
2022-10-20T11:08:59.854Z,79.11
2022-10-20T11:11:38.716Z,79.13
2022-10-20T11:17:01.483Z,79.66
2022-10-20T11:20:00.505Z,78.78
2022-10-20T11:22:38.655Z,78.10
2022-10-20T11:25:15.297Z,77.77
2022-10-20T11:27:43.476Z,77.63
2022-10-20T11:30:18.429Z,77.77
2022-10-20T11:32:52.912Z,77.60
2022-10-20T11:35:32.979Z,77.00
2022-10-20T11:38:16.863Z,76.78
2022-10-20T11:40:49.194Z,76.15
2022-10-20T11:43:23.076Z,76.64
2022-10-20T11:45:55.227Z,75.89
2022-10-20T11:48:27.503Z,75.82
2022-10-20T11:51:14.154Z,76.02
2022-10-20T11:53:55.572Z,76.13
2022-10-20T11:56:35.157Z,75.66
2022-10-20T11:59:38.419Z,75.47
2022-10-20T12:02:27.931Z,75.50
2022-10-20T12:05:21.605Z,74.66
2022-10-20T12:08:30.379Z,75.44
2022-10-20T12:11:06.942Z,74.71
2022-10-20T12:13:44.910Z,75.10
2022-10-20T12:16:13.120Z,74.67
2022-10-20T12:21:55.490Z,74.25
2022-10-20T12:24:37.481Z,75.19
2022-10-20T12:27:21.429Z,74.52
2022-10-20T12:30:05.600Z,74.55
2022-10-20T12:32:53.701Z,75.24
2022-10-20T12:35:53.842Z,74.55
2022-10-20T12:38:23.979Z,73.25
2022-10-20T12:40:59.403Z,74.08
2022-10-20T12:43:32.398Z,73.80
2022-10-20T12:46:10.054Z,74.95
2022-10-20T12:48:56.507Z,73.80
2022-10-20T12:51:42.041Z,74.51
2022-10-20T12:54:25.276Z,74.70
2022-10-20T12:56:59.010Z,73.08
2022-10-20T12:59:47.841Z,73.68
2022-10-20T13:02:52.808Z,72.90
2022-10-20T13:05:50.817Z,74.09
2022-10-20T13:08:32.664Z,73.51
2022-10-20T13:11:42.532Z,72.54
2022-10-20T13:14:46.184Z,73.20
2022-10-20T13:17:28.560Z,72.96
2022-10-20T13:20:01.750Z,72.88
2022-10-20T13:22:39.493Z,73.87
2022-10-20T13:25:15.650Z,74.78
2022-10-20T13:27:43.841Z,73.12
2022-10-20T13:30:21.774Z,72.80
2022-10-20T13:33:11.284Z,72.40
2022-10-20T13:35:54.529Z,72.73
2022-10-20T13:38:28.088Z,72.66
2022-10-20T13:41:03.953Z,73.03
2022-10-20T13:43:40.966Z,74.00
2022-10-20T13:46:35.551Z,72.03
2022-10-20T13:49:18.587Z,72.93
2022-10-20T13:51:50.701Z,72.77
2022-10-20T13:54:25.216Z,71.71
2022-10-20T13:56:54.511Z,71.94
2022-10-20T13:59:24.660Z,72.03
2022-10-20T14:01:56.983Z,71.80
2022-10-20T14:04:27.567Z,71.87
2022-10-20T14:06:56.644Z,72.26
2022-10-20T14:09:26.297Z,72.23
2022-10-20T14:11:59.815Z,71.85
2022-10-20T14:14:30.114Z,72.83
2022-10-20T14:17:02.226Z,72.51
2022-10-20T14:19:31.346Z,71.61
2022-10-20T14:22:10.664Z,72.00
2022-10-20T14:24:43.210Z,73.10
2022-10-20T14:27:25.514Z,71.82
2022-10-20T14:29:54.641Z,72.26
2022-10-20T14:32:27.402Z,71.06
2022-10-20T14:34:58.145Z,71.93
2022-10-20T14:37:31.537Z,71.46
2022-10-20T14:40:02.407Z,72.70
2022-10-20T14:42:33.054Z,72.19
2022-10-20T14:45:03.948Z,71.97
2022-10-20T14:47:40.981Z,72.93
2022-10-20T14:50:21.294Z,72.96
2022-10-20T14:52:53.795Z,72.78
2022-10-20T14:55:37.242Z,72.32
2022-10-20T14:58:05.694Z,73.09
2022-10-20T15:00:36.842Z,73.32
2022-10-20T15:03:08.270Z,73.51
2022-10-20T15:05:42.481Z,72.49
2022-10-20T15:08:18.249Z,72.76
2022-10-20T15:10:46.925Z,73.10
2022-10-20T15:13:29.250Z,73.03
2022-10-20T15:15:58.452Z,73.28
2022-10-20T15:18:29.126Z,73.09
2022-10-20T15:20:57.858Z,73.28
2022-10-20T15:23:27.936Z,73.35
2022-10-20T15:25:59.978Z,73.73
2022-10-20T15:28:39.271Z,73.79
2022-10-20T15:31:16.285Z,73.74
2022-10-20T15:33:45.770Z,73.71
2022-10-20T15:36:16.155Z,74.01
2022-10-20T15:38:44.953Z,73.84
2022-10-20T15:41:15.021Z,74.35
2022-10-20T15:43:43.314Z,74.83
2022-10-20T15:46:13.322Z,74.64
2022-10-20T15:48:41.825Z,74.88
2022-10-20T15:51:16.369Z,74.89
2022-10-20T15:53:46.031Z,74.74
2022-10-20T15:56:14.212Z,74.64
2022-10-20T15:58:42.380Z,74.58
2022-10-20T16:01:12.932Z,74.93
2022-10-20T16:03:43.361Z,74.75
2022-10-20T16:06:14.314Z,74.78
2022-10-20T16:08:43.716Z,75.05
2022-10-20T16:11:12.607Z,75.46
2022-10-20T16:13:40.956Z,75.57
2022-10-20T16:16:12.894Z,75.73
2022-10-20T16:18:41.101Z,75.92
2022-10-20T16:21:10.364Z,75.84
2022-10-20T16:23:42.302Z,75.76
2022-10-20T16:26:12.315Z,75.82
2022-10-20T16:28:40.846Z,75.70
2022-10-20T16:31:11.226Z,75.55
2022-10-20T16:33:39.544Z,75.67
2022-10-20T16:36:09.651Z,75.43
2022-10-20T16:38:40.402Z,75.38
2022-10-20T16:41:11.437Z,75.50
2022-10-20T16:43:40.194Z,75.61
2022-10-20T16:46:09.251Z,75.57
2022-10-20T16:48:42.575Z,75.41
2022-10-20T16:51:13.088Z,75.36
2022-10-20T16:53:42.687Z,75.29
2022-10-20T16:56:12.198Z,75.28
2022-10-20T16:58:41.214Z,75.47
2022-10-20T17:01:12.428Z,75.53
2022-10-20T17:06:20.419Z,75.90
2022-10-20T17:08:50.362Z,76.18
2022-10-20T17:11:20.750Z,76.37
2022-10-20T17:13:48.938Z,76.37
2022-10-20T17:16:19.604Z,76.41
2022-10-20T17:18:48.960Z,76.23
2022-10-20T17:21:17.808Z,76.47
2022-10-20T17:23:46.532Z,76.57
2022-10-20T17:26:17.670Z,76.76
2022-10-20T17:28:46.643Z,76.86
2022-10-20T17:31:17.783Z,76.88
2022-10-20T17:33:46.818Z,76.89
2022-10-20T17:36:15.585Z,76.95
2022-10-20T17:38:44.090Z,77.10
2022-10-20T17:41:15.853Z,77.08
2022-10-20T17:43:44.052Z,77.11
2022-10-20T17:46:14.849Z,77.12
2022-10-20T17:48:43.271Z,77.03
2022-10-20T17:51:13.258Z,77.04
2022-10-20T17:53:44.247Z,77.12
2022-10-20T17:56:14.139Z,77.07
2022-10-20T17:58:45.476Z,76.91
2022-10-20T18:01:15.937Z,76.74
2022-10-20T18:03:45.517Z,76.63
2022-10-20T18:06:16.081Z,76.56
2022-10-20T18:08:45.029Z,76.42
2022-10-20T18:11:15.867Z,76.23
2022-10-20T18:13:45.803Z,76.02
2022-10-20T18:16:16.299Z,75.83
2022-10-20T18:18:44.766Z,75.92
2022-10-20T18:21:14.769Z,75.89
2022-10-20T18:23:45.586Z,75.95
2022-10-20T18:26:16.300Z,75.76
2022-10-20T18:28:48.361Z,75.80
2022-10-20T18:31:19.828Z,75.89
2022-10-20T18:33:48.734Z,75.83
2022-10-20T18:36:19.610Z,76.02
2022-10-20T18:38:48.740Z,75.96
2022-10-20T18:41:19.206Z,76.09
2022-10-20T18:43:56.997Z,76.09
2022-10-20T18:46:26.715Z,76.37
2022-10-20T18:48:55.484Z,76.50
2022-10-20T18:51:23.794Z,76.89
2022-10-20T18:53:53.917Z,77.15
2022-10-20T18:56:23.573Z,77.59
2022-10-20T18:58:54.738Z,77.77
2022-10-20T19:01:24.571Z,77.64
2022-10-20T19:03:54.850Z,77.62
2022-10-20T19:06:25.313Z,77.42
2022-10-20T19:08:54.629Z,77.18
2022-10-20T19:11:24.263Z,77.09
2022-10-20T19:13:54.412Z,77.16
2022-10-20T19:16:25.714Z,76.98
2022-10-20T19:18:55.296Z,76.89
2022-10-20T19:21:26.730Z,76.89
2022-10-20T19:23:58.524Z,76.95
2022-10-20T19:26:28.651Z,77.06
2022-10-20T19:29:00.771Z,77.40
2022-10-20T19:31:33.078Z,77.44
2022-10-20T19:34:03.232Z,77.46
2022-10-20T19:36:31.786Z,77.66
2022-10-20T19:39:00.691Z,77.89
2022-10-20T19:41:29.205Z,77.99
2022-10-20T19:43:58.752Z,78.19
2022-10-20T19:46:27.000Z,78.38
2022-10-20T19:48:55.254Z,78.59
2022-10-20T19:51:23.483Z,78.56
2022-10-20T19:53:52.340Z,78.75
2022-10-20T19:56:20.604Z,78.92
2022-10-20T19:58:49.051Z,79.03
2022-10-20T20:01:19.120Z,79.02
2022-10-20T20:03:47.895Z,78.93
2022-10-20T20:06:18.656Z,78.96
2022-10-20T20:08:48.598Z,78.84
2022-10-20T20:11:23.901Z,78.69
2022-10-20T20:13:52.772Z,78.65
2022-10-20T20:16:22.887Z,78.80
2022-10-20T20:18:51.135Z,78.56
2022-10-20T20:21:19.950Z,78.63
2022-10-20T20:23:58.872Z,78.76
2022-10-20T20:26:28.628Z,78.87
2022-10-20T20:28:57.545Z,78.88
2022-10-20T20:31:28.352Z,78.75
2022-10-20T20:33:57.805Z,78.69
2022-10-20T20:36:27.761Z,78.68
2022-10-20T20:38:58.255Z,78.63
2022-10-20T20:41:28.276Z,78.70
2022-10-20T20:43:56.968Z,78.75
2022-10-20T20:46:30.831Z,78.73
2022-10-20T20:48:59.278Z,78.92
2022-10-20T20:51:29.119Z,79.10
2022-10-20T20:53:57.505Z,79.08
2022-10-20T20:56:26.962Z,79.49
2022-10-20T20:58:55.849Z,79.43
2022-10-20T21:01:28.261Z,79.28
2022-10-20T21:03:57.862Z,79.13
2022-10-20T21:06:33.797Z,78.81
2022-10-20T21:09:12.951Z,79.00
2022-10-20T21:11:42.930Z,79.04
2022-10-20T21:14:13.646Z,78.96
2022-10-20T21:16:43.312Z,78.82
2022-10-20T21:19:11.952Z,78.75
2022-10-20T21:21:43.514Z,78.98
2022-10-20T21:24:12.905Z,79.27
2022-10-20T21:26:41.144Z,79.37
2022-10-20T21:29:09.423Z,79.53
2022-10-20T21:31:37.997Z,79.66
2022-10-20T21:34:07.574Z,79.73
2022-10-20T21:36:37.847Z,79.60
2022-10-20T21:39:08.669Z,79.34
2022-10-20T21:41:37.531Z,79.11
2022-10-20T21:44:07.579Z,78.85
2022-10-20T21:46:39.129Z,78.70
2022-10-20T21:49:11.853Z,78.52
2022-10-20T21:51:41.866Z,78.41
2022-10-20T21:54:13.167Z,78.39
2022-10-20T21:56:45.139Z,78.53
2022-10-20T21:59:19.077Z,78.76
2022-10-20T22:01:47.903Z,78.90
2022-10-20T22:04:19.281Z,78.85
2022-10-20T22:06:48.253Z,78.85
2022-10-20T22:09:16.997Z,78.82
2022-10-20T22:11:50.139Z,78.54
2022-10-20T22:14:18.443Z,78.59
2022-10-20T22:16:46.639Z,78.73
2022-10-20T22:19:18.369Z,78.64
2022-10-20T22:21:50.811Z,78.82
2022-10-20T22:24:19.850Z,78.85
2022-10-20T22:26:48.846Z,78.75
2022-10-20T22:29:17.088Z,78.50
2022-10-20T22:31:45.561Z,78.36
2022-10-20T22:34:14.172Z,78.30
2022-10-20T22:36:44.483Z,78.21
2022-10-20T22:41:46.539Z,78.37
2022-10-20T22:44:15.002Z,78.37
2022-10-20T22:46:43.183Z,78.30
2022-10-20T22:49:13.217Z,78.37
2022-10-20T22:51:43.977Z,78.24
2022-10-20T22:54:13.528Z,78.18
2022-10-20T22:56:41.731Z,78.36
2022-10-20T22:59:09.936Z,78.47
2022-10-20T23:01:38.394Z,78.81
2022-10-20T23:04:06.710Z,79.08
2022-10-20T23:06:35.515Z,79.30
2022-10-20T23:09:03.767Z,79.51
2022-10-20T23:11:33.445Z,79.57
2022-10-20T23:14:01.787Z,79.83
2022-10-20T23:16:30.000Z,79.99
2022-10-20T23:18:58.234Z,79.98
2022-10-20T23:21:26.542Z,80.36
2022-10-20T23:23:54.812Z,80.78
2022-10-20T23:26:23.004Z,80.94
2022-10-20T23:28:52.503Z,81.09
2022-10-20T23:31:22.700Z,81.20
2022-10-20T23:33:52.243Z,81.33
2022-10-20T23:36:22.770Z,81.01
2022-10-20T23:38:51.201Z,81.17
2022-10-20T23:41:19.509Z,81.41
2022-10-20T23:43:47.664Z,81.64
2022-10-20T23:46:17.342Z,81.89
2022-10-20T23:48:45.517Z,81.91
2022-10-20T23:51:13.673Z,81.46
2022-10-20T23:53:41.911Z,81.29
2022-10-20T23:56:10.045Z,81.28
2022-10-20T23:58:38.290Z,81.33
